Weather observations for the past three days for
Titusville
Metric (Imperial)
Date Time (edt) Wind (kph) Vis. (km) Weather Sky Cond. Temperature (ºC) Relative Humidity Wind Chill (°C) Heat Index (°C) Pressure Precipitation (cm)
Air Dwpt 6 hour altimeter (cm) sea level (mb) 1 hr 3 hr 6 hr
Max. Min.
10 10:47 Calm 11.27 Mostly Cloudy BKN060 30 23 66% 34 76.28 0.0
10 09:47 SW 15 11.27 Mostly Cloudy BKN070 29 24 74% 34 76.25 0.0
10 08:47 Calm 8.05 Fog/Mist OVC060 26 25 94% 28 76.25 0.0
10 07:47 Calm 6.44 Fog/Mist BKN060 24 23 94% 23 76.2 0.0
10 06:47 Calm 4.83 Patches Fog BKN060 24 22 89% 24 76.12 0.0
09 20:47 NE 19 8.05 Fog/Mist BKN050 27 23 79% 30 76.05 0.0
09 19:47 N 19 8.05 Fog/Mist SCT050 27 25 89% 31 75.97 0.0
09 18:47 NW 19 9.66 Mostly Cloudy with Haze BKN065 30 23 66% 34 75.92 0.0
09 17:47 SE 19 9.66 Mostly Cloudy with Haze SCT065 BKN095 31 23 62% 35 75.87 0.0
09 16:47 E 15 9.66 Mostly Cloudy with Haze SCT065 BKN095 33 23 56% 38 75.84 0.0
09 15:47 E 15 9.66 Mostly Cloudy with Haze SCT065 BKN095 33 22 52% 37 75.87 0.0
09 14:47 SW 9 9.66 Mostly Cloudy with Haze SCT065 BKN095 37 17 31% 38 75.92 0.0
09 13:47 SW 19 9.66 Mostly Cloudy with Haze BKN050 35 18 36% 36 75.97 0.0
09 12:47 Vrbl 11 6.44 A Few Clouds with Haze FEW020 35 20 41% 38 75.97 0.0
09 11:47 Vrbl 11 6.44 A Few Clouds with Haze FEW020 33 20 46% 35 76.05 0.0
09 10:47 Vrbl 7 6.44 A Few Clouds with Haze FEW010 31 22 59% 35 76.07 0.0
09 09:47 Vrbl 7 4.83 Fog/Mist FEW010 29 23 70% 33 76.07 0.0
09 08:47 Calm 4.83 Fog/Mist SKC 25 24 94% 26 76.07 0.0
09 07:47 Calm 1.61 Fog/Mist OVC002 24 23 94% 23 76.05 0.0
09 06:47 Calm 0.40 Fog OVC002 23 22 94% 76.02 0.0
08 20:47 SE 19 11.27 Partly Cloudy SCT075 28 22 70% 31 76.02 0.0
08 19:47 SE 9 11.27 Partly Cloudy SCT120 30 22 62% 33 75.97 0.0
08 18:47 SE 28 11.27 Partly Cloudy SCT120 30 22 62% 33 75.92 0.0
08 17:47 SE 20 11.27 Partly Cloudy SCT120 32 21 52% 35 75.92 0.0
08 16:47 SE 17 11.27 Partly Cloudy SCT040 33 21 49% 36 75.95 0.0
08 15:47 E 17 G 30 11.27 Partly Cloudy SCT030 33 21 49% 36 76 0.0
08 14:47 SE 17 11.27 Mostly Cloudy BKN030 34 22 50% 38 76.05 0.0
08 13:47 E 13 11.27 Mostly Cloudy SCT020 BKN030 32 20 49% 34 76.1 0.0
08 12:47 Vrbl 11 11.27 Mostly Cloudy BKN020 32 21 52% 35 76.15 0.0
08 11:47 NE 15 11.27 Mostly Cloudy BKN020 32 22 55% 36 76.23 0.0
08 10:47 Vrbl 11 11.27 Mostly Cloudy BKN014 31 22 59% 35 76.23 0.0
08 09:47 Vrbl 11 11.27 Partly Cloudy SCT014 29 22 66% 32 76.23 0.0
08 08:47 Calm 11.27 Fair CLR 27 22 74% 29 76.2 0.0
08 07:47 Calm 11.27 Fair CLR 22 21 94% 76.17 0.0
08 06:47 Calm 11.27 Fair CLR 20 18 88% 76.1 0.0
07 20:47 Vrbl 11 11.27 Fair CLR 29 22 66% 32 76 0.0
07 19:47 SE 15 G 24 11.27 Fair CLR 31 22 59% 35 75.97 0.0
07 18:47 SE 15 G 24 11.27 Fair CLR 33 21 49% 36 75.95 0.0
07 17:47 SW 11 G 22 11.27 A Few Clouds FEW030 36 16 30% 36 75.95 0.0
07 16:47 W 11 G 22 11.27 A Few Clouds FEW050 36 14 27% 35 75.97 0.0
07 15:47 SW 19 G 28 11.27 A Few Clouds FEW050 36 15 28% 36 76.02 0.0
07 14:47 SW 20 G 31 11.27 A Few Clouds FEW050 36 14 27% 35 76.1 0.0
07 13:47 SW 20 G 31 11.27 A Few Clouds FEW050 35 18 36% 36 76.15 0.0
07 12:57 W 20 G 31 11.27 A Few Clouds FEW045 34 18 39% 35 76.17 0.0
07 12:47 Vrbl 11 11.27 Fair CLR 34 19 41% 36 76.17 0.0
07 11:47 Vrbl 11 11.27 Fair CLR 32 19 46% 33 76.23 0.0
Date Time (edt) Wind (kph) Vis. (km) Weather Sky Cond. Air Dwpt Max. Min. Relative Humidity Wind Chill (°C) Heat Index (°C) altimeter (cm) sea level (mb) 1 hr 3 hr 6 hr
6 hour
Temperature (ºC) Pressure Precipitation (cm)